createdAt,value
2023-05-23T00:00:08.578Z,13.50
2023-05-23T00:02:38.121Z,13.50
2023-05-23T00:05:07.375Z,13.50
2023-05-23T00:07:35.455Z,13.50
2023-05-23T00:10:05.212Z,13.50
2023-05-23T00:12:33.864Z,13.60
2023-05-23T00:15:03.043Z,13.70
2023-05-23T00:17:31.134Z,13.70
2023-05-23T00:19:59.065Z,13.70
2023-05-23T00:22:26.983Z,13.70
2023-05-23T00:24:54.950Z,13.70
2023-05-23T00:27:24.252Z,13.70
2023-05-23T00:29:52.187Z,13.70
2023-05-23T00:32:20.082Z,13.70
2023-05-23T00:34:48.456Z,13.80
2023-05-23T00:37:16.605Z,13.70
2023-05-23T00:39:44.566Z,13.70
2023-05-23T00:42:12.652Z,13.60
2023-05-23T00:44:41.972Z,13.70
2023-05-23T00:47:11.287Z,13.60
2023-05-23T00:49:39.190Z,13.50
2023-05-23T00:52:07.595Z,13.60
2023-05-23T00:54:37.509Z,13.50
2023-05-23T00:57:06.151Z,13.40
2023-05-23T00:59:37.158Z,13.40
2023-05-23T01:02:07.236Z,13.30
2023-05-23T01:04:36.120Z,13.30
2023-05-23T01:07:04.241Z,13.30
2023-05-23T01:09:33.155Z,13.20
2023-05-23T01:12:15.244Z,13.10
2023-05-23T01:14:50.032Z,13.10
2023-05-23T01:17:25.829Z,13.00
2023-05-23T01:20:01.627Z,13.00
2023-05-23T01:23:03.787Z,13.00
2023-05-23T01:25:50.886Z,13.00
2023-05-23T01:28:23.161Z,13.20
2023-05-23T01:30:53.522Z,13.50
2023-05-23T01:33:23.791Z,13.60
2023-05-23T01:35:52.673Z,13.80
2023-05-23T01:38:20.678Z,13.90
2023-05-23T01:40:48.716Z,13.90
2023-05-23T01:43:17.193Z,13.90
2023-05-23T01:45:46.592Z,13.90
2023-05-23T01:48:16.621Z,13.90
2023-05-23T01:50:46.618Z,13.90
2023-05-23T01:53:16.199Z,13.90
2023-05-23T01:55:44.948Z,13.90
2023-05-23T01:58:13.449Z,13.90
2023-05-23T02:00:41.512Z,14.00
2023-05-23T02:03:11.918Z,14.00
2023-05-23T02:05:40.391Z,13.90
2023-05-23T02:08:08.623Z,13.90
2023-05-23T02:10:36.799Z,13.90
2023-05-23T02:13:04.838Z,13.90
2023-05-23T02:15:32.800Z,13.90
2023-05-23T02:18:02.305Z,13.90
2023-05-23T02:20:31.693Z,13.90
2023-05-23T02:22:59.633Z,13.90
2023-05-23T02:25:27.676Z,13.90
2023-05-23T02:27:55.643Z,13.90
2023-05-23T02:30:23.629Z,13.90
2023-05-23T02:32:51.714Z,13.90
2023-05-23T02:35:19.784Z,13.90
2023-05-23T02:37:49.122Z,13.90
2023-05-23T02:40:17.362Z,13.90
2023-05-23T02:42:45.310Z,13.80
2023-05-23T02:45:13.395Z,13.90
2023-05-23T02:47:41.425Z,13.80
2023-05-23T02:50:09.887Z,13.80
2023-05-23T02:52:38.359Z,13.80
2023-05-23T02:55:08.653Z,13.80
2023-05-23T02:57:36.613Z,13.80
2023-05-23T03:00:05.439Z,13.80
2023-05-23T03:02:33.558Z,13.80
2023-05-23T03:05:01.615Z,13.80
2023-05-23T03:07:30.270Z,13.80
2023-05-23T03:09:58.509Z,13.80
2023-05-23T03:12:28.033Z,13.80
2023-05-23T03:14:56.024Z,13.70
2023-05-23T03:17:26.134Z,13.70
2023-05-23T03:19:54.162Z,13.70
2023-05-23T03:22:22.457Z,13.70
2023-05-23T03:24:50.432Z,13.70
2023-05-23T03:27:18.491Z,13.70
2023-05-23T03:29:48.318Z,13.70
2023-05-23T03:32:16.355Z,13.80
2023-05-23T03:34:44.323Z,13.80
2023-05-23T03:37:12.292Z,13.80
2023-05-23T03:39:40.182Z,13.90
2023-05-23T03:42:08.740Z,14.00
2023-05-23T03:44:36.755Z,14.00
2023-05-23T03:47:07.100Z,14.00
2023-05-23T03:49:35.316Z,14.10
2023-05-23T03:52:03.397Z,14.10
2023-05-23T03:54:31.397Z,14.10
2023-05-23T03:56:59.407Z,14.10
2023-05-23T03:59:27.399Z,14.20
2023-05-23T04:01:56.367Z,14.20
2023-05-23T04:04:26.458Z,14.20
2023-05-23T04:06:54.684Z,14.20
2023-05-23T04:09:22.642Z,14.20
2023-05-23T04:11:50.709Z,14.20
2023-05-23T04:14:20.294Z,14.20
2023-05-23T04:16:48.318Z,14.20
2023-05-23T04:19:17.373Z,14.20
2023-05-23T04:21:46.894Z,14.20
2023-05-23T04:24:14.888Z,14.20
2023-05-23T04:26:42.994Z,14.20
2023-05-23T04:29:12.240Z,14.30
2023-05-23T04:31:40.418Z,14.20
2023-05-23T04:34:08.474Z,14.20
2023-05-23T04:36:38.163Z,14.20
2023-05-23T04:39:07.793Z,14.20
2023-05-23T04:41:36.788Z,14.20
2023-05-23T04:44:06.150Z,14.20
2023-05-23T04:46:34.141Z,14.30
2023-05-23T04:49:02.317Z,14.20
2023-05-23T04:51:30.248Z,14.30
2023-05-23T04:53:58.143Z,14.30
2023-05-23T04:56:28.531Z,14.30
2023-05-23T04:58:57.125Z,14.30
2023-05-23T05:01:25.255Z,14.30
2023-05-23T05:03:53.383Z,14.30
2023-05-23T05:06:22.333Z,14.30
2023-05-23T05:08:50.300Z,14.40
2023-05-23T05:11:18.280Z,14.30
2023-05-23T05:13:47.679Z,14.30
2023-05-23T05:16:15.670Z,14.30
2023-05-23T05:18:43.781Z,14.40
2023-05-23T05:21:11.709Z,14.30
2023-05-23T05:23:39.623Z,14.40
2023-05-23T05:26:08.246Z,14.40
2023-05-23T05:28:36.563Z,14.40
2023-05-23T05:31:06.079Z,14.50
2023-05-23T05:33:36.461Z,14.50
2023-05-23T05:36:04.856Z,14.50
2023-05-23T05:38:32.765Z,14.60
2023-05-23T05:41:00.697Z,14.60
2023-05-23T05:43:28.672Z,14.70
2023-05-23T05:45:56.628Z,14.70
2023-05-23T05:48:25.987Z,14.80
2023-05-23T05:50:54.049Z,14.80
2023-05-23T05:53:22.134Z,14.80
2023-05-23T05:55:50.446Z,14.80
2023-05-23T05:58:18.542Z,14.80
2023-05-23T06:00:46.912Z,14.90
2023-05-23T06:03:15.838Z,15.10
2023-05-23T06:05:45.258Z,15.20
2023-05-23T06:08:13.268Z,15.40
2023-05-23T06:10:41.419Z,15.60
2023-05-23T06:13:09.517Z,15.70
2023-05-23T06:15:37.621Z,16.00
2023-05-23T06:18:05.864Z,16.10
2023-05-23T06:20:33.876Z,16.30
2023-05-23T06:23:05.698Z,16.40
2023-05-23T06:25:33.960Z,16.70
2023-05-23T06:28:01.889Z,16.70
2023-05-23T06:30:30.683Z,16.80
2023-05-23T06:32:58.776Z,16.90
2023-05-23T06:35:26.765Z,17.00
2023-05-23T06:37:54.715Z,17.10
2023-05-23T06:40:24.131Z,17.00
2023-05-23T06:42:52.045Z,17.00
2023-05-23T06:45:20.008Z,16.80
2023-05-23T06:47:48.299Z,16.90
2023-05-23T06:50:19.814Z,16.90
2023-05-23T06:52:47.931Z,16.70
2023-05-23T06:55:19.492Z,16.50
2023-05-23T06:57:51.925Z,16.50
2023-05-23T07:00:20.577Z,16.60
2023-05-23T07:02:49.532Z,16.70
2023-05-23T07:05:18.242Z,16.70
2023-05-23T07:07:46.281Z,16.70
2023-05-23T07:10:14.195Z,16.80
2023-05-23T07:12:42.103Z,16.80
2023-05-23T07:15:12.732Z,16.80
2023-05-23T07:17:40.709Z,16.80
2023-05-23T07:20:09.875Z,16.60
2023-05-23T07:22:37.804Z,16.60
2023-05-23T07:25:06.638Z,16.60
2023-05-23T07:27:34.589Z,16.80
2023-05-23T07:30:03.275Z,16.80
2023-05-23T07:32:32.596Z,16.80
2023-05-23T07:35:00.632Z,16.90
2023-05-23T07:37:28.742Z,17.10
2023-05-23T07:39:56.914Z,17.20
2023-05-23T07:42:25.005Z,17.40
2023-05-23T07:44:53.215Z,17.40
2023-05-23T07:47:21.184Z,17.60
2023-05-23T07:49:52.050Z,17.90
2023-05-23T07:52:20.130Z,18.10
2023-05-23T07:54:48.389Z,18.20
2023-05-23T07:57:16.802Z,18.30
2023-05-23T07:59:44.747Z,18.20
2023-05-23T08:02:12.767Z,18.20
2023-05-23T08:04:41.337Z,18.10
2023-05-23T08:07:11.592Z,18.10
2023-05-23T08:09:40.306Z,18.30
2023-05-23T08:12:08.603Z,18.40
2023-05-23T08:14:49.884Z,18.50
2023-05-23T08:17:19.191Z,18.60
2023-05-23T08:19:47.638Z,19.00
2023-05-23T08:22:16.996Z,19.20
2023-05-23T08:24:44.902Z,19.30
2023-05-23T08:27:12.855Z,19.40
2023-05-23T08:29:41.324Z,19.40
2023-05-23T08:32:09.560Z,19.40
2023-05-23T08:34:37.539Z,19.40
2023-05-23T08:37:05.929Z,19.20
2023-05-23T08:39:35.245Z,19.10
2023-05-23T08:42:03.402Z,19.20
2023-05-23T08:44:31.472Z,18.90
2023-05-23T08:47:05.660Z,18.50
2023-05-23T08:49:33.968Z,18.40
2023-05-23T08:52:04.885Z,18.40
2023-05-23T08:54:33.958Z,18.20
2023-05-23T08:57:03.514Z,18.10
2023-05-23T08:59:32.815Z,18.10
2023-05-23T09:02:03.412Z,18.00
2023-05-23T09:04:32.502Z,18.10
2023-05-23T09:07:01.371Z,18.20
2023-05-23T09:09:29.440Z,18.30
2023-05-23T09:11:59.820Z,18.30
2023-05-23T09:14:30.484Z,18.50
2023-05-23T09:17:04.596Z,18.50
2023-05-23T09:19:33.553Z,18.70
2023-05-23T09:22:04.874Z,18.80
2023-05-23T09:24:37.064Z,18.80
2023-05-23T09:27:07.481Z,18.80
2023-05-23T09:29:40.469Z,18.90
2023-05-23T09:32:15.774Z,18.80
2023-05-23T09:34:44.432Z,18.70
2023-05-23T09:37:18.319Z,18.20
2023-05-23T09:39:48.678Z,18.00
2023-05-23T09:42:22.261Z,17.90
2023-05-23T09:44:52.012Z,17.80
2023-05-23T09:47:20.476Z,17.50
2023-05-23T09:49:48.853Z,17.30
2023-05-23T09:52:16.890Z,17.10
2023-05-23T09:54:46.600Z,17.10
2023-05-23T09:57:17.056Z,17.10
2023-05-23T09:59:52.239Z,17.00
2023-05-23T10:02:54.441Z,17.00
2023-05-23T10:05:33.196Z,17.00
2023-05-23T10:08:03.457Z,17.10
2023-05-23T10:10:34.208Z,17.30
2023-05-23T10:13:05.737Z,17.30
2023-05-23T10:15:40.048Z,17.40
2023-05-23T10:18:17.195Z,17.50
2023-05-23T10:20:49.222Z,17.40
2023-05-23T10:23:18.531Z,17.40
2023-05-23T10:25:47.469Z,17.30
2023-05-23T10:28:15.924Z,17.30
2023-05-23T10:30:44.292Z,17.20
2023-05-23T10:33:16.819Z,17.00
2023-05-23T10:35:52.193Z,16.90
2023-05-23T10:38:31.559Z,16.90
2023-05-23T10:41:06.646Z,17.00
2023-05-23T10:43:44.002Z,16.80
2023-05-23T10:46:14.650Z,16.80
2023-05-23T10:48:45.309Z,16.60
2023-05-23T10:51:14.810Z,16.50
2023-05-23T10:53:44.158Z,16.50
2023-05-23T10:56:20.682Z,16.60
2023-05-23T10:58:53.407Z,16.50
2023-05-23T11:01:21.715Z,16.80
2023-05-23T11:03:56.251Z,16.90
2023-05-23T11:06:33.472Z,17.00
2023-05-23T11:09:07.566Z,17.10
2023-05-23T11:12:02.853Z,17.30
2023-05-23T11:14:49.506Z,17.30
2023-05-23T11:17:18.500Z,17.50
2023-05-23T11:20:05.734Z,17.70
2023-05-23T11:22:34.338Z,17.90
2023-05-23T11:25:03.564Z,18.00
2023-05-23T11:27:34.808Z,18.10
2023-05-23T11:30:05.354Z,18.10
2023-05-23T11:32:33.421Z,18.20
2023-05-23T11:35:04.906Z,18.20
2023-05-23T11:37:33.446Z,18.20
2023-05-23T11:40:21.843Z,18.10
2023-05-23T11:42:49.756Z,18.00
2023-05-23T11:45:17.854Z,17.90
2023-05-23T11:47:46.182Z,17.60
2023-05-23T11:50:16.708Z,17.40
2023-05-23T11:52:46.722Z,17.40
2023-05-23T11:55:14.745Z,17.30
2023-05-23T11:57:42.734Z,17.30
2023-05-23T12:00:12.044Z,17.30
2023-05-23T12:02:41.158Z,17.30
2023-05-23T12:05:10.642Z,17.20
2023-05-23T12:07:43.217Z,17.00
2023-05-23T12:10:12.518Z,16.80
2023-05-23T12:12:42.381Z,16.80
2023-05-23T12:15:11.629Z,16.90
2023-05-23T12:17:40.283Z,16.80
2023-05-23T12:20:09.103Z,16.80
2023-05-23T12:22:37.083Z,16.80
2023-05-23T12:25:10.226Z,16.60
2023-05-23T12:27:40.065Z,16.50
2023-05-23T12:30:10.498Z,16.30
2023-05-23T12:32:41.519Z,16.30
2023-05-23T12:35:13.064Z,16.30
2023-05-23T12:37:41.509Z,16.30
2023-05-23T12:40:16.394Z,16.20
2023-05-23T12:42:51.993Z,16.20
2023-05-23T12:45:20.334Z,16.20
2023-05-23T12:47:48.379Z,16.20
2023-05-23T12:50:16.572Z,16.20
2023-05-23T12:52:44.750Z,16.20
2023-05-23T12:55:14.200Z,16.20
2023-05-23T12:57:42.160Z,16.20
2023-05-23T13:00:11.927Z,16.30
2023-05-23T13:02:40.454Z,16.50
2023-05-23T13:05:09.497Z,16.60
2023-05-23T13:07:37.912Z,16.80
2023-05-23T13:10:06.705Z,17.00
2023-05-23T13:12:36.009Z,17.10
2023-05-23T13:15:04.080Z,17.20
2023-05-23T13:17:32.085Z,17.20
2023-05-23T13:20:00.056Z,17.20
2023-05-23T13:22:28.025Z,17.20
2023-05-23T13:24:56.010Z,17.10
2023-05-23T13:27:24.007Z,17.10
2023-05-23T13:29:53.354Z,16.90
2023-05-23T13:32:21.353Z,16.90
2023-05-23T13:34:49.323Z,16.90
2023-05-23T13:37:17.332Z,16.80
2023-05-23T13:39:45.351Z,16.80
2023-05-23T13:42:13.336Z,16.60
2023-05-23T13:44:41.375Z,16.50
2023-05-23T13:47:14.532Z,16.50
2023-05-23T13:49:43.119Z,16.50
2023-05-23T13:52:11.250Z,16.40
2023-05-23T13:54:39.416Z,16.40
2023-05-23T13:57:07.700Z,16.40
2023-05-23T13:59:36.142Z,16.50
2023-05-23T14:02:04.124Z,16.50
2023-05-23T14:04:34.014Z,16.40
2023-05-23T14:07:02.015Z,16.40
2023-05-23T14:09:30.014Z,16.40
2023-05-23T14:11:58.033Z,16.50
2023-05-23T14:14:27.094Z,16.50
2023-05-23T14:16:55.189Z,16.40
2023-05-23T14:19:23.259Z,16.30
2023-05-23T14:21:52.593Z,16.20
2023-05-23T14:24:21.983Z,16.20
2023-05-23T14:26:50.329Z,16.20
2023-05-23T14:29:18.469Z,16.20
2023-05-23T14:31:46.492Z,16.00
2023-05-23T14:34:14.577Z,16.00
2023-05-23T14:36:42.560Z,15.90
2023-05-23T14:39:11.900Z,15.90
2023-05-23T14:41:39.916Z,15.70
2023-05-23T14:44:07.977Z,15.60
2023-05-23T14:46:36.197Z,15.20
2023-05-23T14:49:04.186Z,15.00
2023-05-23T14:51:46.269Z,14.90
2023-05-23T14:54:19.510Z,14.80
2023-05-23T14:56:47.836Z,14.70
2023-05-23T14:59:16.932Z,14.60
2023-05-23T15:01:45.077Z,14.50
2023-05-23T15:04:13.196Z,14.50
2023-05-23T15:06:41.636Z,14.40
2023-05-23T15:09:10.584Z,14.30
2023-05-23T15:11:40.421Z,14.40
2023-05-23T15:14:08.454Z,14.40
2023-05-23T15:16:37.068Z,14.40
2023-05-23T15:19:06.149Z,14.30
2023-05-23T15:21:34.176Z,14.30
2023-05-23T15:24:02.123Z,14.30
2023-05-23T15:26:30.838Z,14.20
2023-05-23T15:29:00.190Z,14.20
2023-05-23T15:31:28.784Z,14.30
2023-05-23T15:33:56.796Z,14.20
2023-05-23T15:36:24.987Z,14.20
2023-05-23T15:38:52.939Z,14.20
2023-05-23T15:41:21.464Z,14.20
2023-05-23T15:43:49.399Z,14.20
2023-05-23T15:46:18.815Z,14.20
2023-05-23T15:48:46.768Z,14.30
2023-05-23T15:51:14.817Z,14.20
2023-05-23T15:53:59.711Z,14.10
2023-05-23T15:56:28.579Z,14.10
2023-05-23T15:58:57.003Z,14.00
2023-05-23T16:01:26.374Z,14.10
2023-05-23T16:03:54.775Z,14.10
2023-05-23T16:06:23.112Z,13.90
2023-05-23T16:08:51.096Z,14.00
2023-05-23T16:11:19.288Z,14.00
2023-05-23T16:13:47.273Z,13.90
2023-05-23T16:16:15.454Z,13.90
2023-05-23T16:18:44.856Z,13.90
2023-05-23T16:21:12.838Z,13.80
2023-05-23T16:23:40.892Z,13.70
2023-05-23T16:26:08.842Z,13.60
2023-05-23T16:28:36.860Z,13.50
2023-05-23T16:31:05.016Z,13.60
2023-05-23T16:33:32.925Z,13.60
2023-05-23T16:36:02.247Z,13.50
2023-05-23T16:38:30.327Z,13.40
2023-05-23T16:40:58.217Z,13.40
2023-05-23T16:43:26.233Z,13.30
2023-05-23T16:45:54.566Z,13.30
2023-05-23T16:48:22.648Z,13.30
2023-05-23T16:50:50.726Z,13.20
2023-05-23T16:53:20.229Z,13.00
2023-05-23T16:55:48.325Z,13.10
2023-05-23T16:58:18.616Z,13.00
2023-05-23T17:00:48.704Z,13.00
2023-05-23T17:03:16.880Z,13.00
2023-05-23T17:05:45.215Z,13.00
2023-05-23T17:08:13.625Z,13.00
2023-05-23T17:10:43.190Z,13.00
2023-05-23T17:13:11.431Z,12.90
2023-05-23T17:15:39.606Z,12.90
2023-05-23T17:18:08.249Z,12.80
2023-05-23T17:20:36.541Z,12.90
2023-05-23T17:23:06.057Z,12.80
2023-05-23T17:25:34.381Z,12.80
2023-05-23T17:28:03.729Z,12.80
2023-05-23T17:30:32.077Z,12.80
2023-05-23T17:33:00.239Z,12.80
2023-05-23T17:35:32.011Z,12.80
2023-05-23T17:38:00.915Z,12.70
2023-05-23T17:40:31.774Z,12.60
2023-05-23T17:42:59.872Z,12.70
2023-05-23T17:45:29.311Z,12.60
2023-05-23T17:47:58.698Z,12.60
2023-05-23T17:50:26.874Z,12.60
2023-05-23T17:52:54.760Z,12.60
2023-05-23T17:55:22.853Z,12.60
2023-05-23T17:57:50.797Z,12.60
2023-05-23T18:00:19.453Z,12.60
2023-05-23T18:02:48.957Z,12.50
2023-05-23T18:05:17.005Z,12.50
2023-05-23T18:07:44.852Z,12.60
2023-05-23T18:10:13.165Z,12.50
2023-05-23T18:12:41.250Z,12.50
2023-05-23T18:15:10.675Z,12.60
2023-05-23T18:17:38.849Z,12.50
2023-05-23T18:20:09.709Z,12.50
2023-05-23T18:22:37.654Z,12.50
2023-05-23T18:25:06.951Z,12.40
2023-05-23T18:27:34.904Z,12.40
2023-05-23T18:30:03.009Z,12.30
2023-05-23T18:32:31.452Z,12.20
2023-05-23T18:34:59.446Z,12.20
2023-05-23T18:37:28.744Z,12.20
2023-05-23T18:39:59.338Z,12.30
2023-05-23T18:42:27.326Z,12.20
2023-05-23T18:44:55.333Z,12.20
2023-05-23T18:47:23.777Z,12.20
2023-05-23T18:49:52.363Z,12.20
2023-05-23T18:52:20.383Z,12.20
2023-05-23T18:54:53.573Z,12.20
2023-05-23T18:57:22.858Z,12.10
2023-05-23T18:59:51.521Z,12.10
2023-05-23T19:02:19.664Z,12.10
2023-05-23T19:04:47.698Z,12.10
2023-05-23T19:07:16.340Z,12.10
2023-05-23T19:09:44.263Z,12.10
2023-05-23T19:12:13.571Z,12.10
2023-05-23T19:14:41.472Z,12.10
2023-05-23T19:17:09.512Z,12.20
2023-05-23T19:19:38.082Z,12.20
2023-05-23T19:22:07.061Z,12.20
2023-05-23T19:24:35.005Z,12.20
2023-05-23T19:27:03.105Z,12.20
2023-05-23T19:29:32.495Z,12.30
2023-05-23T19:32:00.694Z,12.30
2023-05-23T19:34:28.741Z,12.20
2023-05-23T19:36:56.718Z,12.10
2023-05-23T19:39:24.658Z,12.10
2023-05-23T19:41:52.842Z,12.00
2023-05-23T19:44:20.982Z,12.00
2023-05-23T19:46:50.682Z,11.90
2023-05-23T19:49:19.311Z,11.90
2023-05-23T19:51:47.279Z,11.90
2023-05-23T19:54:15.478Z,11.90
2023-05-23T19:56:43.556Z,11.80
2023-05-23T19:59:11.666Z,11.70
2023-05-23T20:01:39.602Z,11.70
2023-05-23T20:04:12.747Z,11.60
2023-05-23T20:06:41.101Z,11.60
2023-05-23T20:09:09.075Z,11.50
2023-05-23T20:11:37.450Z,11.50
2023-05-23T20:14:05.505Z,11.40
2023-05-23T20:16:33.690Z,11.30
2023-05-23T20:19:01.581Z,11.30
2023-05-23T20:21:31.005Z,11.30
2023-05-23T20:23:58.980Z,11.30
2023-05-23T20:26:27.657Z,11.30
2023-05-23T20:28:55.845Z,11.20
2023-05-23T20:31:24.020Z,11.20
2023-05-23T20:33:52.452Z,11.20
2023-05-23T20:36:21.122Z,11.20
2023-05-23T20:38:50.599Z,11.10
2023-05-23T20:41:18.850Z,11.10
2023-05-23T20:43:48.239Z,11.00
2023-05-23T20:46:16.196Z,11.00
2023-05-23T20:48:44.167Z,11.00
2023-05-23T20:51:17.109Z,11.00
2023-05-23T20:53:45.136Z,11.00
2023-05-23T20:56:14.870Z,11.00
2023-05-23T20:58:43.208Z,10.90
2023-05-23T21:01:11.128Z,10.80
2023-05-23T21:03:39.138Z,10.80
2023-05-23T21:06:07.622Z,10.80
2023-05-23T21:08:35.553Z,10.70
2023-05-23T21:11:03.536Z,10.70
2023-05-23T21:13:32.790Z,10.70
2023-05-23T21:16:00.816Z,10.70
2023-05-23T21:18:28.735Z,10.70
2023-05-23T21:20:56.714Z,10.70
2023-05-23T21:23:24.602Z,10.60
2023-05-23T21:25:53.153Z,10.60
2023-05-23T21:28:21.178Z,10.60
2023-05-23T21:30:50.770Z,10.60
2023-05-23T21:33:18.718Z,10.50
2023-05-23T21:35:46.640Z,10.50
2023-05-23T21:38:14.585Z,10.40
2023-05-23T21:40:42.640Z,10.40
2023-05-23T21:43:11.130Z,10.40
2023-05-23T21:45:39.029Z,10.40
2023-05-23T21:48:08.573Z,10.30
2023-05-23T21:50:36.459Z,10.40
2023-05-23T21:53:04.461Z,10.40
2023-05-23T21:55:32.431Z,10.40
2023-05-23T21:58:00.500Z,10.40
2023-05-23T22:00:28.397Z,10.40
2023-05-23T22:02:56.320Z,10.40
2023-05-23T22:05:25.735Z,10.40
2023-05-23T22:07:53.780Z,10.40
2023-05-23T22:10:21.714Z,10.40
2023-05-23T22:12:49.636Z,10.30
2023-05-23T22:15:17.567Z,10.30
2023-05-23T22:17:46.762Z,10.20
2023-05-23T22:20:16.755Z,10.20
2023-05-23T22:22:46.315Z,10.10
2023-05-23T22:25:14.281Z,10.00
2023-05-23T22:27:42.199Z,9.90
2023-05-23T22:30:11.236Z,10.10
2023-05-23T22:32:39.208Z,10.00
2023-05-23T22:35:07.846Z,10.00
2023-05-23T22:37:35.816Z,9.90
2023-05-23T22:40:06.497Z,9.90
2023-05-23T22:42:34.443Z,9.90
2023-05-23T22:45:02.596Z,9.90
2023-05-23T22:47:32.435Z,10.00
2023-05-23T22:50:02.229Z,9.90
2023-05-23T22:52:31.460Z,9.90
2023-05-23T22:54:59.380Z,9.90
2023-05-23T22:57:28.601Z,9.80
2023-05-23T22:59:56.699Z,9.80
2023-05-23T23:02:24.742Z,9.70
2023-05-23T23:04:52.738Z,9.70
2023-05-23T23:07:20.669Z,9.80
2023-05-23T23:09:49.150Z,9.70
2023-05-23T23:12:17.076Z,9.60
2023-05-23T23:14:46.338Z,9.60
2023-05-23T23:17:14.588Z,9.50
2023-05-23T23:19:42.623Z,9.50
2023-05-23T23:22:10.615Z,9.40
2023-05-23T23:24:38.553Z,9.50
2023-05-23T23:27:07.182Z,9.40
2023-05-23T23:29:35.361Z,9.50
2023-05-23T23:32:04.830Z,9.40
2023-05-23T23:34:32.825Z,9.50
2023-05-23T23:37:00.760Z,9.50
2023-05-23T23:39:28.748Z,9.50
2023-05-23T23:41:56.874Z,9.50
2023-05-23T23:44:24.801Z,9.50
2023-05-23T23:46:52.780Z,9.50
2023-05-23T23:49:22.130Z,9.40
2023-05-23T23:51:50.144Z,9.40
2023-05-23T23:54:18.199Z,9.40
2023-05-23T23:56:46.185Z,9.40
2023-05-23T23:59:14.073Z,9.40
